createdAt,value
2022-12-01T00:00:12.365Z,66.1429
2022-12-01T00:01:12.398Z,66.3571
2022-12-01T00:02:12.576Z,66.4286
2022-12-01T00:03:12.564Z,63
2022-12-01T00:04:12.494Z,63.6429
2022-12-01T00:05:12.521Z,69.1429
2022-12-01T00:06:12.548Z,65.3571
2022-12-01T00:07:12.582Z,62
2022-12-01T00:08:12.615Z,70.4286
2022-12-01T00:09:17.949Z,66.7143
2022-12-01T00:10:12.674Z,64.2143
2022-12-01T00:11:12.710Z,70
2022-12-01T00:12:12.739Z,67.3571
2022-12-01T00:13:12.775Z,67.1429
2022-12-01T00:14:12.802Z,65.4286
2022-12-01T00:15:12.819Z,71.4286
2022-12-01T00:16:12.918Z,66.3571
2022-12-01T00:17:12.870Z,66.5
2022-12-01T00:18:12.912Z,65.4286
2022-12-01T00:19:12.938Z,65.2143
2022-12-01T00:20:12.963Z,68.9286
2022-12-01T00:21:12.992Z,66.4286
2022-12-01T00:22:13.018Z,67.1429
2022-12-01T00:23:13.095Z,67.8571
2022-12-01T00:24:13.102Z,67
2022-12-01T00:25:13.132Z,67.8571
2022-12-01T00:26:13.164Z,67.2143
2022-12-01T00:27:13.193Z,68.3571
2022-12-01T00:28:13.241Z,68.4286
2022-12-01T00:29:13.274Z,69
2022-12-01T00:30:13.299Z,65.4286
2022-12-01T00:31:13.321Z,70.5
2022-12-01T00:32:13.444Z,69.5
2022-12-01T00:33:13.381Z,70.7143
2022-12-01T00:34:13.415Z,68.6429
2022-12-01T00:35:13.437Z,69.5
2022-12-01T00:36:13.473Z,65.2143
2022-12-01T00:37:13.501Z,62.1429
2022-12-01T00:38:13.535Z,69.9286
2022-12-01T00:39:13.557Z,69.9286
2022-12-01T00:40:13.590Z,67.8571
2022-12-01T00:41:13.613Z,67.6429
2022-12-01T00:42:13.742Z,72.3571
2022-12-01T00:43:13.671Z,74
2022-12-01T00:44:13.723Z,69.9286
2022-12-01T00:45:13.739Z,67.5
2022-12-01T00:46:13.816Z,69.7143
2022-12-01T00:47:13.793Z,67.1429
2022-12-01T00:48:13.826Z,67.4286
2022-12-01T00:49:13.872Z,69.4286
2022-12-01T00:50:13.890Z,68.9286
2022-12-01T00:51:13.915Z,64.3571
2022-12-01T00:52:13.944Z,71.1429
2022-12-01T00:53:13.984Z,71.3571
2022-12-01T00:54:14.035Z,67
2022-12-01T00:55:14.040Z,69.5
2022-12-01T00:56:14.066Z,66
2022-12-01T00:57:14.101Z,71.6429
2022-12-01T00:58:14.123Z,69.7143
2022-12-01T00:59:14.180Z,65.6429
2022-12-01T01:00:14.193Z,65.1429
2022-12-01T01:01:14.305Z,78.2143
2022-12-01T01:02:14.289Z,70.3571
2022-12-01T01:03:14.282Z,69.3571
2022-12-01T01:04:14.312Z,70.1429
2022-12-01T01:05:14.347Z,67.6429
2022-12-01T01:06:14.370Z,65.6429
2022-12-01T01:07:14.410Z,69.7143
2022-12-01T01:08:14.432Z,66
2022-12-01T01:09:14.462Z,69.2143
2022-12-01T01:10:14.504Z,65.9286
2022-12-01T01:11:14.543Z,65.5
2022-12-01T01:12:14.570Z,66.8571
2022-12-01T01:13:14.598Z,63.2143
2022-12-01T01:14:14.626Z,63.2143
2022-12-01T01:15:14.670Z,63.5
2022-12-01T01:16:14.773Z,64
2022-12-01T01:17:14.727Z,67.3571
2022-12-01T01:18:14.761Z,65.1429
2022-12-01T01:19:14.783Z,63.8571
2022-12-01T01:20:14.819Z,64.3571
2022-12-01T01:21:14.843Z,68.6429
2022-12-01T01:22:14.877Z,65.3571
2022-12-01T01:23:14.913Z,63
2022-12-01T01:24:14.939Z,61.3571
2022-12-01T01:25:14.984Z,58.1429
2022-12-01T01:26:14.995Z,64.2143
2022-12-01T01:27:15.041Z,60.5
2022-12-01T01:28:15.065Z,59.8571
2022-12-01T01:29:15.087Z,59.7143
2022-12-01T01:30:15.133Z,64.9286
2022-12-01T01:31:15.233Z,60.7143
2022-12-01T01:32:15.184Z,62.5
2022-12-01T01:33:15.222Z,63.5
2022-12-01T01:34:15.246Z,65.6429
2022-12-01T01:35:15.273Z,66.6429
2022-12-01T01:36:15.301Z,68.5
2022-12-01T01:37:15.324Z,68.7143
2022-12-01T01:38:15.367Z,66.3571
2022-12-01T01:39:15.409Z,64.2143
2022-12-01T01:40:15.428Z,61.5
2022-12-01T01:41:15.471Z,62.5
2022-12-01T01:42:15.499Z,65.2143
2022-12-01T01:43:15.532Z,63.5
2022-12-01T01:44:15.560Z,65.7143
2022-12-01T01:45:15.592Z,69.3571
2022-12-01T01:46:15.710Z,65.1429
2022-12-01T01:47:15.644Z,63.5
2022-12-01T01:48:15.677Z,62
2022-12-01T01:49:15.709Z,67.6429
2022-12-01T01:50:15.742Z,63.1429
2022-12-01T01:51:15.783Z,70.1429
2022-12-01T01:52:15.797Z,67
2022-12-01T01:53:15.829Z,66.9286
2022-12-01T01:54:15.882Z,63.4286
2022-12-01T01:55:15.902Z,64.2143
2022-12-01T01:56:15.920Z,64.2143
2022-12-01T01:57:15.957Z,67.6429
2022-12-01T01:58:15.991Z,69.3571
2022-12-01T01:59:16.024Z,64.4286
2022-12-01T02:00:16.056Z,67.6429
2022-12-01T02:01:16.187Z,66.6429
2022-12-01T02:02:16.255Z,65.3571
2022-12-01T02:03:16.155Z,64.6429
2022-12-01T02:04:16.188Z,62.7143
2022-12-01T02:05:16.219Z,64.5
2022-12-01T02:06:16.252Z,61.2143
2022-12-01T02:07:16.321Z,63.5
2022-12-01T02:08:16.317Z,61.5
2022-12-01T02:09:16.351Z,60.1429
2022-12-01T02:10:16.375Z,60.3571
2022-12-01T02:11:16.407Z,55.6429
2022-12-01T02:12:16.456Z,58.7143
2022-12-01T02:13:16.473Z,60.5
2022-12-01T02:14:16.502Z,56.7143
2022-12-01T02:15:16.532Z,56.8571
2022-12-01T02:16:16.634Z,56.9286
2022-12-01T02:17:16.598Z,55.4286
2022-12-01T02:18:16.629Z,55.2143
2022-12-01T02:19:16.650Z,59.6429
2022-12-01T02:20:16.689Z,56.1429
2022-12-01T02:21:16.710Z,56.8571
2022-12-01T02:22:16.736Z,54.1429
2022-12-01T02:23:16.778Z,58.2143
2022-12-01T02:24:16.800Z,53.5
2022-12-01T02:25:16.832Z,52.6429
2022-12-01T02:26:16.862Z,55.9286
2022-12-01T02:27:16.903Z,54.3571
2022-12-01T02:28:16.962Z,54.4286
2022-12-01T02:29:16.967Z,57.9286
2022-12-01T02:30:17.001Z,58
2022-12-01T02:31:17.080Z,54.6429
2022-12-01T02:32:17.059Z,51.5
2022-12-01T02:33:17.105Z,54.9286
2022-12-01T02:34:17.124Z,55.7143
2022-12-01T02:35:17.145Z,57.7143
2022-12-01T02:36:17.177Z,57.4286
2022-12-01T02:37:17.207Z,55.7143
2022-12-01T02:38:17.239Z,56.7143
2022-12-01T02:39:17.268Z,58.8571
2022-12-01T02:40:17.293Z,60.4286
2022-12-01T02:41:17.323Z,55.5
2022-12-01T02:42:17.357Z,58.4286
2022-12-01T02:43:17.380Z,55.4286
2022-12-01T02:44:17.414Z,54.5
2022-12-01T02:45:17.453Z,57
2022-12-01T02:46:17.536Z,57.8571
2022-12-01T02:47:17.514Z,58.7143
2022-12-01T02:48:17.547Z,56.7143
2022-12-01T02:49:17.588Z,59
2022-12-01T02:50:17.620Z,64.8571
2022-12-01T02:51:17.709Z,60.5
2022-12-01T02:52:17.694Z,60.4286
2022-12-01T02:53:17.731Z,58.7143
2022-12-01T02:54:17.739Z,60.6429
2022-12-01T02:55:17.786Z,59.8571
2022-12-01T02:56:17.818Z,58.9286
2022-12-01T02:57:17.854Z,57.4286
2022-12-01T02:58:17.860Z,63.9286
2022-12-01T02:59:17.892Z,57.6429
2022-12-01T03:00:17.926Z,65.2143
2022-12-01T03:01:18.079Z,57.9286
2022-12-01T03:02:18.037Z,59.6429
2022-12-01T03:03:18.015Z,64
2022-12-01T03:04:18.050Z,60.7143
2022-12-01T03:05:18.076Z,63.4286
2022-12-01T03:06:18.108Z,67.2143
2022-12-01T03:07:18.176Z,63.5
2022-12-01T03:08:18.175Z,64.5
2022-12-01T03:09:18.203Z,60.4286
2022-12-01T03:10:18.232Z,62.7143
2022-12-01T03:11:18.263Z,65
2022-12-01T03:12:18.304Z,60.3571
2022-12-01T03:13:18.327Z,62.3571
2022-12-01T03:14:18.355Z,63
2022-12-01T03:15:18.387Z,63
2022-12-01T03:16:18.502Z,61.5
2022-12-01T03:17:18.436Z,61.4286
2022-12-01T03:18:18.492Z,62.4286
2022-12-01T03:19:18.502Z,62.5
2022-12-01T03:20:18.527Z,65.2143
2022-12-01T03:21:18.560Z,62.4286
2022-12-01T03:22:18.601Z,63.7143
2022-12-01T03:23:18.628Z,60.9286
2022-12-01T03:24:18.656Z,61.2143
2022-12-01T03:25:18.699Z,62.5
2022-12-01T03:26:18.728Z,63.2143
2022-12-01T03:27:18.748Z,65.6429
2022-12-01T03:28:21.584Z,64.9286
2022-12-01T03:29:18.806Z,64.3571
2022-12-01T03:30:18.844Z,64.3571
2022-12-01T03:31:18.944Z,65.6429
2022-12-01T03:32:18.909Z,64.8571
2022-12-01T03:33:18.934Z,65.5
2022-12-01T03:34:18.964Z,64.2143
2022-12-01T03:35:18.987Z,68.4286
2022-12-01T03:36:19.017Z,63.5
2022-12-01T03:37:19.043Z,66.5
2022-12-01T03:38:19.090Z,66.5
2022-12-01T03:39:19.102Z,66.5
2022-12-01T03:40:19.135Z,66.1429
2022-12-01T03:41:19.169Z,63.2143
2022-12-01T03:42:19.198Z,67
2022-12-01T03:43:19.225Z,68.3571
2022-12-01T03:44:19.267Z,67.7143
2022-12-01T03:45:19.290Z,66.8571
2022-12-01T03:46:19.391Z,66.1429
2022-12-01T03:47:19.355Z,62.4286
2022-12-01T03:48:19.390Z,75.9286
2022-12-01T03:49:19.435Z,71.7143
2022-12-01T03:50:19.446Z,76
2022-12-01T03:51:19.486Z,70.1429
2022-12-01T03:52:19.516Z,70.3571
2022-12-01T03:53:19.561Z,71
2022-12-01T03:54:19.586Z,69.7143
2022-12-01T03:55:19.621Z,68.3571
2022-12-01T03:56:19.644Z,65.9286
2022-12-01T03:57:19.668Z,67.7143
2022-12-01T03:58:19.696Z,68.4286
2022-12-01T03:59:19.733Z,61.9286
2022-12-01T04:00:19.757Z,65.5
2022-12-01T04:01:19.819Z,67.2143
2022-12-01T04:02:19.833Z,60.2143
2022-12-01T04:03:19.917Z,61.6429
2022-12-01T04:04:19.879Z,62.6429
2022-12-01T04:05:23.852Z,57.9286
2022-12-01T04:06:19.943Z,61
2022-12-01T04:07:20.032Z,63.3571
2022-12-01T04:08:20.007Z,65.3571
2022-12-01T04:09:20.043Z,62.7143
2022-12-01T04:10:20.071Z,63.1429
2022-12-01T04:11:20.103Z,59.9286
2022-12-01T04:12:20.136Z,62.2143
2022-12-01T04:13:20.166Z,62.4286
2022-12-01T04:14:20.172Z,64.2143
2022-12-01T04:15:20.192Z,63.2143
2022-12-01T04:16:20.323Z,61.2143
2022-12-01T04:17:20.245Z,63.4286
2022-12-01T04:18:20.279Z,61.6429
2022-12-01T04:19:20.308Z,63
2022-12-01T04:20:20.336Z,60.7143
2022-12-01T04:21:20.366Z,64.5
2022-12-01T04:22:20.392Z,59.4286
2022-12-01T04:23:20.420Z,62.4286
2022-12-01T04:24:20.455Z,63
2022-12-01T04:25:20.487Z,61.5
2022-12-01T04:26:20.527Z,64.1429
2022-12-01T04:27:20.561Z,68.4286
2022-12-01T04:28:20.612Z,65.5
2022-12-01T04:29:20.627Z,68.3571
2022-12-01T04:30:20.659Z,63.8571
2022-12-01T04:31:20.708Z,64.9286
2022-12-01T04:32:20.729Z,61.1429
2022-12-01T04:33:20.773Z,65.1429
2022-12-01T04:34:20.798Z,67
2022-12-01T04:35:20.814Z,67.5
2022-12-01T04:36:20.852Z,66.6429
2022-12-01T04:37:20.886Z,62.6429
2022-12-01T04:38:20.920Z,63.5
2022-12-01T04:39:20.943Z,62.3571
2022-12-01T04:40:20.980Z,70.6429
2022-12-01T04:41:21.014Z,66.6429
2022-12-01T04:42:21.046Z,69.7143
2022-12-01T04:43:21.112Z,68
2022-12-01T04:44:21.109Z,66.5
2022-12-01T04:45:21.130Z,66.5
2022-12-01T04:46:21.263Z,67.7143
2022-12-01T04:47:21.202Z,66.8571
2022-12-01T04:48:21.250Z,66.4286
2022-12-01T04:49:21.261Z,63
2022-12-01T04:50:21.290Z,67.5
2022-12-01T04:51:21.326Z,66.9286
2022-12-01T04:52:21.340Z,67.3571
2022-12-01T04:53:21.366Z,66.7143
2022-12-01T04:54:21.399Z,70
2022-12-01T04:55:21.423Z,68.6429
2022-12-01T04:56:21.459Z,66.1429
2022-12-01T04:57:21.495Z,65.3571
2022-12-01T04:58:21.529Z,66.2143
2022-12-01T04:59:21.556Z,65.8571
2022-12-01T05:00:21.593Z,66.9286
2022-12-01T05:01:21.694Z,67.2143
2022-12-01T05:02:21.715Z,71.6429
2022-12-01T05:03:21.690Z,69.8571
2022-12-01T05:04:21.733Z,67.3571
2022-12-01T05:05:21.746Z,71.1429
2022-12-01T05:06:21.784Z,68.2143
2022-12-01T05:07:21.886Z,67.9286
2022-12-01T05:08:21.849Z,68.5
2022-12-01T05:09:21.899Z,67.2143
2022-12-01T05:10:21.916Z,68.7143
2022-12-01T05:11:21.953Z,71
2022-12-01T05:12:21.988Z,65.7143
2022-12-01T05:13:22.029Z,71.3571
2022-12-01T05:14:22.090Z,71
2022-12-01T05:15:22.080Z,69.8571
2022-12-01T05:16:22.144Z,73.3571
2022-12-01T05:17:22.147Z,74.4286
2022-12-01T05:18:22.215Z,72.6429
2022-12-01T05:19:22.218Z,68.6429
2022-12-01T05:20:22.226Z,69.5
2022-12-01T05:21:22.270Z,76
2022-12-01T05:22:42.602Z,72.8571
2022-12-01T05:23:22.325Z,73.8571
2022-12-01T05:24:22.361Z,74.2143
2022-12-01T05:25:22.382Z,68.5
2022-12-01T05:26:22.407Z,76
2022-12-01T05:27:22.439Z,77.6429
2022-12-01T05:28:22.478Z,71.4286
2022-12-01T05:29:22.502Z,74.9286
2022-12-01T05:30:27.072Z,70.4286
2022-12-01T05:31:22.585Z,72.6429
2022-12-01T05:32:22.592Z,70.8571
2022-12-01T05:33:22.632Z,69.2143
2022-12-01T05:34:22.662Z,73.8571
2022-12-01T05:35:22.673Z,74.6429
2022-12-01T05:36:22.695Z,70.9286
2022-12-01T05:37:22.735Z,71.5
2022-12-01T05:38:22.762Z,73.5
2022-12-01T05:39:22.791Z,71.3571
2022-12-01T05:40:22.835Z,71.4286
2022-12-01T05:41:22.861Z,78.2143
2022-12-01T05:42:22.895Z,77.8571
2022-12-01T05:43:28.607Z,75
2022-12-01T05:44:22.958Z,77.9286
2022-12-01T05:45:22.992Z,74.2143
2022-12-01T05:46:23.096Z,73.6429
2022-12-01T05:47:23.059Z,78.3571
2022-12-01T05:48:23.086Z,79.3571
2022-12-01T05:49:23.124Z,77.6429
2022-12-01T05:50:23.156Z,73.8571
2022-12-01T05:51:23.191Z,73
2022-12-01T05:52:23.221Z,75.6429
2022-12-01T05:53:23.272Z,75.6429
2022-12-01T05:54:23.277Z,81.2143
2022-12-01T05:55:23.313Z,73.4286
2022-12-01T05:56:23.353Z,73.2143
2022-12-01T05:57:23.363Z,73.1429
2022-12-01T05:58:23.407Z,79
2022-12-01T05:59:23.435Z,73.4286
2022-12-01T06:00:23.470Z,77.2143
2022-12-01T06:01:23.532Z,81.4286
2022-12-01T06:02:23.754Z,77
2022-12-01T06:03:23.566Z,75.2143
2022-12-01T06:04:23.686Z,75.7143
2022-12-01T06:05:23.632Z,74.4286
2022-12-01T06:06:23.664Z,79.2143
2022-12-01T06:07:23.714Z,84.4286
2022-12-01T06:08:23.726Z,84.3571
2022-12-01T06:09:23.751Z,77
2022-12-01T06:10:23.783Z,74.8571
2022-12-01T06:11:23.814Z,74.4286
2022-12-01T06:12:23.834Z,72.3571
2022-12-01T06:13:23.864Z,72.3571
2022-12-01T06:14:23.893Z,73.3571
2022-12-01T06:15:23.938Z,67.7143
2022-12-01T06:16:24.049Z,71
2022-12-01T06:17:24.001Z,67.9286
2022-12-01T06:18:24.031Z,71.1429
2022-12-01T06:19:24.057Z,70.9286
2022-12-01T06:20:24.083Z,69.2143
2022-12-01T06:21:24.111Z,72.2143
2022-12-01T06:22:24.151Z,72
2022-12-01T06:23:28.931Z,73.8571
2022-12-01T06:24:24.206Z,68.6429
2022-12-01T06:25:24.237Z,70.5
2022-12-01T06:26:24.267Z,68.6429
2022-12-01T06:27:24.312Z,67.3571
2022-12-01T06:28:24.342Z,69.9286
2022-12-01T06:29:24.530Z,68.4286
2022-12-01T06:30:24.411Z,71.1429
2022-12-01T06:31:24.506Z,68.1429
2022-12-01T06:32:24.496Z,69.4286
2022-12-01T06:33:24.497Z,65.8571
2022-12-01T06:34:24.526Z,66.6429
2022-12-01T06:35:24.571Z,69.5
2022-12-01T06:36:24.596Z,69.6429
2022-12-01T06:37:24.633Z,71.9286
2022-12-01T06:38:24.636Z,65
2022-12-01T06:39:24.662Z,69.6429
2022-12-01T06:40:24.699Z,70.2143
2022-12-01T06:41:24.719Z,72.1429
2022-12-01T06:42:24.755Z,66.9286
2022-12-01T06:43:24.785Z,68
2022-12-01T06:44:24.822Z,68.6429
2022-12-01T06:45:24.848Z,68.4286
2022-12-01T06:46:24.929Z,63.6429
2022-12-01T06:47:24.915Z,67.3571
2022-12-01T06:48:24.953Z,68.6429
2022-12-01T06:49:24.979Z,66.1429
2022-12-01T06:50:25.033Z,69.2143
2022-12-01T06:51:25.040Z,68.1429
2022-12-01T06:52:25.060Z,69.1429
2022-12-01T06:53:25.093Z,67.7143
2022-12-01T06:54:25.115Z,69.8571
2022-12-01T06:55:25.154Z,67.2143
2022-12-01T06:56:25.184Z,70.4286
2022-12-01T06:57:25.216Z,70.5
2022-12-01T06:58:25.260Z,69.2143
2022-12-01T06:59:25.264Z,65.5
2022-12-01T07:00:25.299Z,69.2143
2022-12-01T07:01:25.410Z,70.2143
2022-12-01T07:02:25.441Z,70.7143
2022-12-01T07:03:25.429Z,71.7143
2022-12-01T07:04:25.422Z,74.5
2022-12-01T07:05:25.456Z,76.1429
2022-12-01T07:06:25.487Z,74.9286
2022-12-01T07:07:25.578Z,73.3571
2022-12-01T07:08:25.565Z,77.9286
2022-12-01T07:09:25.576Z,75.9286
2022-12-01T07:10:25.595Z,72.3571
2022-12-01T07:11:25.636Z,73.8571
2022-12-01T07:12:25.659Z,72.6429
2022-12-01T07:13:30.078Z,80.2143
2022-12-01T07:14:25.715Z,71.2143
2022-12-01T07:15:25.747Z,71.4286
2022-12-01T07:16:25.807Z,74.9286
2022-12-01T07:17:25.800Z,76.1429
2022-12-01T07:18:25.833Z,74.3571
2022-12-01T07:19:25.865Z,74.5
2022-12-01T07:20:25.884Z,71.9286
2022-12-01T07:21:25.917Z,69.9286
2022-12-01T07:22:32.246Z,71.2143
2022-12-01T07:23:25.974Z,74.3571
2022-12-01T07:24:26.009Z,73.2143
2022-12-01T07:25:26.050Z,70.2143
2022-12-01T07:26:26.078Z,68.8571
2022-12-01T07:27:26.103Z,66.5
2022-12-01T07:28:26.137Z,69.7143
2022-12-01T07:29:26.177Z,70.6429
2022-12-01T07:30:28.821Z,71.3571
2022-12-01T07:31:26.273Z,68.3571
2022-12-01T07:32:26.268Z,70
2022-12-01T07:33:26.296Z,68.3571
2022-12-01T07:34:26.351Z,69.4286
2022-12-01T07:35:26.368Z,71.7143
2022-12-01T07:36:26.406Z,66.6429
2022-12-01T07:37:26.432Z,69.1429
2022-12-01T07:38:26.457Z,70.5
2022-12-01T07:39:26.497Z,68.8571
2022-12-01T07:40:26.588Z,69.4286
2022-12-01T07:41:26.537Z,69.5
2022-12-01T07:42:26.576Z,68.4286
2022-12-01T07:43:26.610Z,68.5
2022-12-01T07:44:26.631Z,66.6429
2022-12-01T07:45:26.655Z,66.1429
2022-12-01T07:46:26.858Z,69
2022-12-01T07:47:26.708Z,68.5
2022-12-01T07:48:26.740Z,63.7143
2022-12-01T07:49:26.781Z,70.3571
2022-12-01T07:50:26.874Z,66
2022-12-01T07:51:26.822Z,65.6429
2022-12-01T07:52:26.858Z,68.1429
2022-12-01T07:53:26.895Z,67.8571
2022-12-01T07:54:26.926Z,63.8571
2022-12-01T07:55:27.001Z,65.6429
2022-12-01T07:56:26.995Z,72.9286
2022-12-01T07:57:27.030Z,67.6429
2022-12-01T07:58:27.057Z,67.4286
2022-12-01T07:59:27.082Z,68.3571
2022-12-01T08:00:27.135Z,69.5
2022-12-01T08:01:27.253Z,66.1429
2022-12-01T08:02:27.210Z,67.8571
2022-12-01T08:03:27.224Z,65.3571
2022-12-01T08:04:27.234Z,67.8571
2022-12-01T08:05:27.263Z,63.6429
2022-12-01T08:06:27.299Z,67.2143
2022-12-01T08:07:30.002Z,72.7143
2022-12-01T08:08:27.358Z,63.5
2022-12-01T08:09:27.396Z,67.5
2022-12-01T08:10:27.421Z,67.8571
2022-12-01T08:11:27.452Z,67.6429
2022-12-01T08:12:27.482Z,66.8571
2022-12-01T08:13:27.518Z,66.4286
2022-12-01T08:14:27.552Z,74.4286
2022-12-01T08:15:27.606Z,69.4286
2022-12-01T08:16:27.610Z,68.8571
2022-12-01T08:17:27.644Z,69.5
2022-12-01T08:18:27.680Z,69.6429
2022-12-01T08:19:27.701Z,70.6429
2022-12-01T08:20:27.878Z,69.6429
2022-12-01T08:21:27.774Z,70.8571
2022-12-01T08:22:27.805Z,67.3571
2022-12-01T08:23:27.834Z,66
2022-12-01T08:24:27.861Z,65.5
2022-12-01T08:25:27.894Z,70.6429
2022-12-01T08:26:27.940Z,68.8571
2022-12-01T08:27:27.947Z,71.2143
2022-12-01T08:28:27.978Z,70.1429
2022-12-01T08:29:28.017Z,70.9286
2022-12-01T08:30:28.046Z,73.5
2022-12-01T08:31:28.144Z,67
2022-12-01T08:32:28.101Z,68.8571
2022-12-01T08:33:28.135Z,70.6429
2022-12-01T08:34:28.154Z,70.3571
2022-12-01T08:35:28.189Z,74.2143
2022-12-01T08:36:28.214Z,69
2022-12-01T08:37:28.233Z,70
2022-12-01T08:38:28.272Z,75
2022-12-01T08:39:28.296Z,72
2022-12-01T08:40:28.334Z,78.4286
2022-12-01T08:41:28.365Z,73.2143
2022-12-01T08:42:28.393Z,72.5
2022-12-01T08:43:49.979Z,76.4286
2022-12-01T08:44:28.530Z,74.6429
2022-12-01T08:45:28.489Z,75
2022-12-01T08:46:28.560Z,76.4286
2022-12-01T08:47:28.552Z,76.4286
2022-12-01T08:48:28.598Z,76
2022-12-01T08:49:28.628Z,75.1429
2022-12-01T08:50:28.717Z,77.2143
2022-12-01T08:51:28.679Z,80.2143
2022-12-01T08:52:28.776Z,83.4286
2022-12-01T08:53:28.731Z,78.8571
2022-12-01T08:54:28.755Z,78.4286
2022-12-01T08:55:28.793Z,80.7143
2022-12-01T08:56:28.823Z,82.5
2022-12-01T08:57:28.880Z,85.8571
2022-12-01T08:58:28.877Z,83.3571
2022-12-01T08:59:28.902Z,88.6429
2022-12-01T09:00:28.930Z,79.5
2022-12-01T09:01:29.023Z,81.8571
2022-12-01T09:02:29.186Z,77.3571
2022-12-01T09:03:29.014Z,79.3571
2022-12-01T09:04:29.053Z,78.9286
2022-12-01T09:05:29.077Z,84.1429
2022-12-01T09:06:29.119Z,82.9286
2022-12-01T09:07:29.233Z,87.3571
2022-12-01T09:08:29.187Z,84.5
2022-12-01T09:09:29.216Z,88
2022-12-01T09:10:29.254Z,86
2022-12-01T09:11:29.285Z,88.7143
2022-12-01T09:12:29.311Z,91
2022-12-01T09:13:29.326Z,91.5
2022-12-01T09:14:29.359Z,92.6429
2022-12-01T09:15:29.385Z,92
2022-12-01T09:16:29.553Z,90.4286
2022-12-01T09:17:29.437Z,91
2022-12-01T09:18:29.471Z,96.2143
2022-12-01T09:19:29.516Z,92.5
2022-12-01T09:20:29.548Z,94.2143
2022-12-01T09:21:29.607Z,102.714
2022-12-01T09:22:29.601Z,98.2143
2022-12-01T09:23:29.633Z,91.6429
2022-12-01T09:24:29.658Z,101.214
2022-12-01T09:25:29.695Z,97.5
2022-12-01T09:26:29.741Z,101.643
2022-12-01T09:27:29.755Z,101.714
2022-12-01T09:28:29.786Z,100.5
2022-12-01T09:29:29.822Z,97.6429
2022-12-01T09:30:29.855Z,101.214
2022-12-01T09:31:29.958Z,95
2022-12-01T09:32:29.951Z,101.429
2022-12-01T09:33:29.934Z,96.1429
2022-12-01T09:34:29.968Z,99.6429
2022-12-01T09:35:30.001Z,105.5
2022-12-01T09:36:30.026Z,104.429
2022-12-01T09:37:30.105Z,102.143
2022-12-01T09:38:30.085Z,107.214
2022-12-01T09:39:30.121Z,102.214
2022-12-01T09:40:30.158Z,105.714
2022-12-01T09:41:30.192Z,103.357
2022-12-01T09:42:35.199Z,100.643
2022-12-01T09:43:30.279Z,107
2022-12-01T09:44:30.317Z,107.214
2022-12-01T09:45:30.337Z,104.429
2022-12-01T09:46:30.406Z,105.357
2022-12-01T09:47:30.397Z,103.857
2022-12-01T09:48:30.443Z,103.143
2022-12-01T09:49:30.464Z,98.9286
2022-12-01T09:50:30.494Z,102
2022-12-01T09:51:30.520Z,103.714
2022-12-01T09:52:30.559Z,99
2022-12-01T09:53:30.594Z,99.2143
2022-12-01T09:54:30.625Z,101.643
2022-12-01T09:55:30.658Z,94.5
2022-12-01T09:56:30.690Z,98.5
2022-12-01T09:57:30.714Z,92.7143
2022-12-01T09:58:30.759Z,93.6429
2022-12-01T09:59:30.785Z,97.6429
2022-12-01T10:00:30.847Z,95.5
2022-12-01T10:01:30.895Z,98.4286
2022-12-01T10:02:30.912Z,99.6429
2022-12-01T10:03:30.891Z,88.4286
2022-12-01T10:04:30.936Z,100
2022-12-01T10:05:30.990Z,91.2143
2022-12-01T10:06:31.050Z,94.7143
2022-12-01T10:07:31.079Z,88.4286
2022-12-01T10:08:31.058Z,88.5
2022-12-01T10:09:31.085Z,94
2022-12-01T10:10:31.117Z,95.4286
2022-12-01T10:11:31.156Z,98.5
2022-12-01T10:12:31.188Z,94.4286
2022-12-01T10:13:31.215Z,94.1429
2022-12-01T10:14:31.243Z,95.7143
2022-12-01T10:15:31.327Z,93
2022-12-01T10:16:31.348Z,91
2022-12-01T10:17:31.340Z,94.8571
2022-12-01T10:18:31.377Z,96.7143
2022-12-01T10:19:31.405Z,92.8571
2022-12-01T10:20:31.454Z,97.1429
2022-12-01T10:21:31.495Z,96
2022-12-01T10:22:31.497Z,97.1429
2022-12-01T10:23:31.529Z,94.1429
2022-12-01T10:24:31.559Z,97
2022-12-01T10:25:31.586Z,96.4286
2022-12-01T10:26:31.670Z,94
2022-12-01T10:27:31.651Z,96.6429
2022-12-01T10:28:31.683Z,98.9286
2022-12-01T10:29:31.709Z,92.9286
2022-12-01T10:30:31.743Z,101.929
2022-12-01T10:31:31.836Z,95.5
2022-12-01T10:32:31.811Z,95.9286
2022-12-01T10:33:31.840Z,97.9286
2022-12-01T10:34:31.878Z,99.4286
2022-12-01T10:35:31.908Z,99.1429
2022-12-01T10:36:31.939Z,104.857
2022-12-01T10:37:32.017Z,104.357
2022-12-01T10:38:32.002Z,98.9286
2022-12-01T10:39:32.031Z,100.857
2022-12-01T10:40:32.066Z,105.5
2022-12-01T10:41:32.093Z,102.357
2022-12-01T10:42:32.223Z,98.7143
2022-12-01T10:43:32.149Z,100
2022-12-01T10:44:32.183Z,100.214
2022-12-01T10:45:32.302Z,103.643
2022-12-01T10:46:32.253Z,101.929
2022-12-01T10:47:32.295Z,107.214
2022-12-01T10:48:32.310Z,106.643
2022-12-01T10:49:32.341Z,104.429
2022-12-01T10:50:32.370Z,110.5
2022-12-01T10:51:32.396Z,108.929
2022-12-01T10:52:32.431Z,106.857
2022-12-01T10:53:32.472Z,110.643
2022-12-01T10:54:32.497Z,113.643
2022-12-01T10:55:32.531Z,101.357
2022-12-01T10:56:32.571Z,106.929
2022-12-01T10:57:32.588Z,110.357
2022-12-01T10:58:32.614Z,109.143
2022-12-01T10:59:32.645Z,104.643
2022-12-01T11:00:57.958Z,109.143
2022-12-01T11:01:32.817Z,106.714
2022-12-01T11:02:32.901Z,108.714
2022-12-01T11:03:33.016Z,105
2022-12-01T11:04:32.801Z,104.5
2022-12-01T11:05:32.831Z,113.929
2022-12-01T11:06:32.864Z,106.214
2022-12-01T11:07:32.969Z,104.143
2022-12-01T11:08:32.937Z,103.857
2022-12-01T11:09:32.965Z,106.143
2022-12-01T11:10:33.003Z,104.643
2022-12-01T11:11:33.033Z,106.429
2022-12-01T11:12:33.072Z,103.857
2022-12-01T11:13:33.146Z,103.357
2022-12-01T11:14:33.134Z,98
2022-12-01T11:15:33.163Z,97.2143
2022-12-01T11:16:33.244Z,93.4286
2022-12-01T11:17:33.228Z,93
2022-12-01T11:18:33.381Z,93.9286
2022-12-01T11:19:33.355Z,95.7143
2022-12-01T11:20:33.359Z,92.5
2022-12-01T11:21:33.359Z,94.5
2022-12-01T11:22:33.393Z,88.9286
2022-12-01T11:23:33.420Z,90.8571
2022-12-01T11:24:33.440Z,94.1429
2022-12-01T11:25:33.476Z,86.7143
2022-12-01T11:26:33.508Z,93.5
2022-12-01T11:27:33.535Z,88.2143
2022-12-01T11:28:33.576Z,89.5
2022-12-01T11:29:33.605Z,81.4286
2022-12-01T11:30:33.648Z,85.3571
2022-12-01T11:31:33.705Z,85.8571
2022-12-01T11:32:33.711Z,88
2022-12-01T11:33:33.733Z,86.1429
2022-12-01T11:34:33.769Z,85.8571
2022-12-01T11:35:33.793Z,86.9286
2022-12-01T11:36:33.825Z,81.4286
2022-12-01T11:37:33.852Z,83.2143
2022-12-01T11:38:33.887Z,82.5
2022-12-01T11:39:33.910Z,82.5
2022-12-01T11:40:33.942Z,83.4286
2022-12-01T11:41:33.987Z,83.4286
2022-12-01T11:42:34.004Z,82.9286
2022-12-01T11:43:34.032Z,75.8571
2022-12-01T11:48:34.163Z,82.9286
2022-12-01T11:49:34.228Z,77.1429
2022-12-01T11:50:34.239Z,73.4286
2022-12-01T11:51:34.266Z,76.2143
2022-12-01T11:52:34.294Z,75.6429
2022-12-01T11:53:34.580Z,79
2022-12-01T11:54:34.368Z,79
2022-12-01T11:55:34.390Z,74.6429
2022-12-01T11:56:34.423Z,76.5
2022-12-01T11:57:35.262Z,75.8571
2022-12-01T11:58:34.799Z,75.7143
2022-12-01T11:59:34.516Z,79.6429
2022-12-01T12:00:34.556Z,74.9286
2022-12-01T12:01:34.588Z,80.9286
2022-12-01T12:02:34.684Z,76.8571
2022-12-01T12:03:34.661Z,75.7143
2022-12-01T12:04:34.665Z,79.8571
2022-12-01T12:05:34.695Z,76
2022-12-01T12:06:40.557Z,73.1429
2022-12-01T12:07:34.805Z,78.2143
2022-12-01T12:08:34.867Z,71.1429
2022-12-01T12:09:34.807Z,78.9286
2022-12-01T12:10:34.907Z,72.7143
2022-12-01T12:11:34.879Z,75.7143
2022-12-01T12:12:34.901Z,73.4286
2022-12-01T12:13:34.930Z,70.6429
2022-12-01T12:14:34.959Z,73.8571
2022-12-01T12:15:34.989Z,74
2022-12-01T12:16:35.025Z,66.9286
2022-12-01T12:17:35.109Z,72
2022-12-01T12:18:35.099Z,73.4286
2022-12-01T12:20:00.109Z,69.3571
2022-12-01T12:20:35.150Z,72.2143
2022-12-01T12:21:35.173Z,73.1429
2022-12-01T12:22:35.221Z,73.9286
2022-12-01T12:23:35.227Z,71.4286
2022-12-01T12:24:35.261Z,70.4286
2022-12-01T12:25:35.298Z,68.1429
2022-12-01T12:26:35.315Z,71.2143
2022-12-01T12:27:35.362Z,69.4286
2022-12-01T12:28:35.420Z,72.5
2022-12-01T12:29:35.406Z,71
2022-12-01T12:30:35.535Z,72